createdAt,value
2023-04-29T00:03:48.427Z,93767.00
2023-04-29T00:07:53.984Z,93775.00
2023-04-29T00:11:58.501Z,93757.00
2023-04-29T00:16:01.860Z,93758.00
2023-04-29T00:20:06.333Z,93750.00
2023-04-29T00:24:11.019Z,93748.00
2023-04-29T00:28:14.593Z,93749.00
2023-04-29T00:32:17.953Z,93746.00
2023-04-29T00:36:21.408Z,93750.00
2023-04-29T00:40:26.090Z,93742.00
2023-04-29T00:44:29.538Z,93750.00
2023-04-29T00:48:33.167Z,93751.00
2023-04-29T00:52:37.147Z,93751.00
2023-04-29T00:56:42.842Z,93745.00
2023-04-29T01:00:47.253Z,93747.00
2023-04-29T01:04:50.982Z,93745.00
2023-04-29T01:09:06.964Z,93740.00
2023-04-29T01:13:19.240Z,93745.00
2023-04-29T01:17:29.306Z,93742.00
2023-04-29T01:21:34.121Z,93744.00
2023-04-29T01:25:39.664Z,93749.00
2023-04-29T01:29:57.722Z,93750.00
2023-04-29T01:34:09.465Z,93750.00
2023-04-29T01:38:23.653Z,93737.00
2023-04-29T01:42:36.580Z,93745.00
2023-04-29T01:46:50.301Z,93737.00
2023-04-29T01:50:56.643Z,93732.00
2023-04-29T01:55:00.293Z,93733.00
2023-04-29T01:59:14.384Z,93737.00
2023-04-29T02:03:43.397Z,93728.00
2023-04-29T02:07:49.718Z,93729.00
2023-04-29T02:11:53.207Z,93731.00
2023-04-29T02:15:57.959Z,93743.00
2023-04-29T02:20:03.072Z,93753.00
2023-04-29T02:24:06.950Z,93747.00
2023-04-29T02:28:10.747Z,93740.00
2023-04-29T02:32:20.225Z,93745.00
2023-04-29T02:36:24.850Z,93729.00
2023-04-29T02:40:29.087Z,93728.00
2023-04-29T02:44:33.044Z,93730.00
2023-04-29T02:48:37.868Z,93725.00
2023-04-29T02:52:43.086Z,93730.00
2023-04-29T02:56:46.652Z,93733.00
2023-04-29T03:00:50.417Z,93740.00
2023-04-29T03:04:55.486Z,93731.00
2023-04-29T03:09:00.509Z,93734.00
2023-04-29T03:13:04.471Z,93735.00
2023-04-29T03:17:09.692Z,93732.00
2023-04-29T03:21:15.282Z,93736.00
2023-04-29T03:25:19.121Z,93733.00
2023-04-29T03:29:22.910Z,93723.00
2023-04-29T03:33:26.506Z,93727.00
2023-04-29T03:37:32.501Z,93725.00
2023-04-29T03:41:50.721Z,93716.00
2023-04-29T03:45:54.704Z,93717.00
2023-04-29T03:50:01.422Z,93722.00
2023-04-29T03:54:08.473Z,93725.00
2023-04-29T03:58:14.656Z,93730.00
2023-04-29T04:02:19.907Z,93724.00
2023-04-29T04:06:24.033Z,93722.00
2023-04-29T04:10:30.636Z,93735.00
2023-04-29T04:14:36.715Z,93742.00
2023-04-29T04:18:41.781Z,93742.00
2023-04-29T04:22:45.298Z,93744.00
2023-04-29T04:26:58.405Z,93736.00
2023-04-29T04:31:09.155Z,93745.00
2023-04-29T04:35:13.564Z,93741.00
2023-04-29T04:39:17.193Z,93746.00
2023-04-29T04:43:22.980Z,93743.00
2023-04-29T04:47:27.296Z,93750.00
2023-04-29T04:51:38.901Z,93750.00
2023-04-29T04:55:42.830Z,93753.00
2023-04-29T04:59:47.751Z,93751.00
2023-04-29T05:03:51.822Z,93741.00
2023-04-29T05:07:55.809Z,93747.00
2023-04-29T05:12:07.420Z,93754.00
2023-04-29T05:16:13.120Z,93750.00
2023-04-29T05:20:21.916Z,93752.00
2023-04-29T05:24:26.394Z,93715.00
2023-04-29T05:28:30.118Z,93705.00
2023-04-29T05:32:39.611Z,93718.00
2023-04-29T05:36:47.038Z,93724.00
2023-04-29T05:40:53.280Z,93735.00
2023-04-29T05:45:14.982Z,93758.00
2023-04-29T05:49:20.112Z,93773.00
2023-04-29T05:53:23.480Z,93770.00
2023-04-29T05:57:27.256Z,93774.00
2023-04-29T06:01:31.727Z,93779.00
2023-04-29T06:05:37.838Z,93784.00
2023-04-29T06:10:10.831Z,93783.00
2023-04-29T06:14:16.579Z,93788.00
2023-04-29T06:18:21.021Z,93789.00
2023-04-29T06:22:26.074Z,93790.00
2023-04-29T06:26:31.769Z,93790.00
2023-04-29T06:30:35.562Z,93792.00
2023-04-29T06:34:39.606Z,93782.00
2023-04-29T06:39:07.597Z,93783.00
2023-04-29T06:43:29.251Z,93781.00
2023-04-29T06:47:52.096Z,93782.00
2023-04-29T06:52:08.625Z,93787.00
2023-04-29T06:56:15.024Z,93794.00
2023-04-29T07:00:21.203Z,93800.00
2023-04-29T07:04:25.036Z,93807.00
2023-04-29T07:08:28.849Z,93807.00
2023-04-29T07:12:33.738Z,93811.00
2023-04-29T07:16:37.382Z,93801.00
2023-04-29T07:20:46.532Z,93803.00
2023-04-29T07:24:50.307Z,93824.00
2023-04-29T07:28:55.606Z,93832.00
2023-04-29T07:33:00.923Z,93824.00
2023-04-29T07:37:04.489Z,93821.00
2023-04-29T07:41:08.802Z,93814.00
2023-04-29T07:45:14.157Z,93803.00
2023-04-29T07:49:17.844Z,93804.00
2023-04-29T07:53:21.959Z,93825.00
2023-04-29T07:57:29.435Z,93812.00
2023-04-29T08:01:34.335Z,93813.00
2023-04-29T08:05:38.538Z,93825.00
2023-04-29T08:09:43.268Z,93826.00
2023-04-29T08:13:47.961Z,93826.00
2023-04-29T08:17:52.818Z,93835.00
2023-04-29T08:21:56.365Z,93829.00
2023-04-29T08:26:00.273Z,93834.00
2023-04-29T08:30:03.799Z,93833.00
2023-04-29T08:34:10.280Z,93834.00
2023-04-29T08:38:13.743Z,93839.00
2023-04-29T08:42:22.472Z,93841.00
2023-04-29T08:46:27.196Z,93845.00
2023-04-29T08:50:33.386Z,93844.00
2023-04-29T08:54:37.131Z,93838.00
2023-04-29T08:58:42.448Z,93836.00
2023-04-29T09:02:51.876Z,93825.00
2023-04-29T09:06:59.460Z,93817.00
2023-04-29T09:11:03.485Z,93829.00
2023-04-29T09:15:07.926Z,93827.00
2023-04-29T09:19:11.635Z,93828.00
2023-04-29T09:23:16.758Z,93827.00
2023-04-29T09:27:29.328Z,93838.00
2023-04-29T09:31:33.006Z,93848.00
2023-04-29T09:35:37.462Z,93841.00
2023-04-29T09:39:42.312Z,93838.00
2023-04-29T09:43:45.964Z,93842.00
2023-04-29T09:48:03.983Z,93834.00
2023-04-29T09:52:08.943Z,93833.00
2023-04-29T09:56:14.675Z,93834.00
2023-04-29T10:00:19.327Z,93834.00
2023-04-29T10:04:26.324Z,93822.00
2023-04-29T10:08:31.621Z,93836.00
2023-04-29T10:12:37.471Z,93834.00
2023-04-29T10:16:47.980Z,93823.00
2023-04-29T10:20:53.299Z,93806.00
2023-04-29T10:25:02.131Z,93807.00
2023-04-29T10:29:08.928Z,93818.00
2023-04-29T10:33:13.167Z,93810.00
2023-04-29T10:37:17.816Z,93822.00
2023-04-29T10:41:25.730Z,93827.00
2023-04-29T10:45:31.924Z,93863.00
2023-04-29T10:49:35.960Z,93878.00
2023-04-29T10:54:04.036Z,93872.00
2023-04-29T10:58:07.839Z,93866.00
2023-04-29T11:02:12.923Z,93841.00
2023-04-29T11:06:16.765Z,93844.00
2023-04-29T11:10:20.552Z,93845.00
2023-04-29T11:14:26.904Z,93844.00
2023-04-29T11:18:31.848Z,93836.00
2023-04-29T11:22:35.419Z,93833.00
2023-04-29T11:26:38.903Z,93808.00
2023-04-29T11:30:44.395Z,93808.00
2023-04-29T11:34:49.126Z,93810.00
2023-04-29T11:38:52.909Z,93806.00
2023-04-29T11:42:56.474Z,93795.00
2023-04-29T11:47:03.732Z,93790.00
2023-04-29T11:51:08.760Z,93805.00
2023-04-29T11:55:13.230Z,93802.00
2023-04-29T11:59:16.743Z,93824.00
2023-04-29T12:03:22.505Z,93824.00
2023-04-29T12:07:27.662Z,93812.00
2023-04-29T12:11:31.158Z,93816.00
2023-04-29T12:15:36.322Z,93827.00
2023-04-29T12:19:41.972Z,93817.00
2023-04-29T12:23:47.932Z,93815.00
2023-04-29T12:27:51.372Z,93813.00
2023-04-29T12:31:54.978Z,93802.00
2023-04-29T12:35:59.553Z,93800.00
2023-04-29T12:40:05.448Z,93796.00
2023-04-29T12:44:10.905Z,93802.00
2023-04-29T12:48:25.426Z,93796.00
2023-04-29T12:52:35.226Z,93789.00
2023-04-29T12:56:42.032Z,93793.00
2023-04-29T13:00:45.625Z,93789.00
2023-04-29T13:04:49.268Z,93788.00
2023-04-29T13:08:52.926Z,93788.00
2023-04-29T13:12:58.101Z,93791.00
2023-04-29T13:17:01.646Z,93793.00
2023-04-29T13:21:05.591Z,93796.00
2023-04-29T13:25:10.467Z,93791.00
2023-04-29T13:29:15.978Z,93799.00
2023-04-29T13:33:19.798Z,93801.00
2023-04-29T13:37:24.587Z,93796.00
2023-04-29T13:41:29.028Z,93804.00
2023-04-29T13:45:39.786Z,93804.00
2023-04-29T13:50:19.674Z,93811.00
2023-04-29T13:54:53.491Z,93809.00
2023-04-29T13:59:03.303Z,93815.00
2023-04-29T14:07:06.018Z,93802.00
2023-04-29T14:11:10.354Z,93804.00
2023-04-29T14:15:14.175Z,93795.00
2023-04-29T14:19:19.163Z,93801.00
2023-04-29T14:23:23.884Z,93800.00
2023-04-29T14:27:27.497Z,93800.00
2023-04-29T14:31:32.626Z,93790.00
2023-04-29T14:35:37.720Z,93799.00
2023-04-29T14:39:42.481Z,93788.00
2023-04-29T14:43:46.179Z,93801.00
2023-04-29T14:47:51.969Z,93798.00
2023-04-29T14:51:57.075Z,93813.00
2023-04-29T14:56:00.880Z,93820.00
2023-04-29T15:00:04.719Z,93818.00
2023-04-29T15:04:08.254Z,93827.00
2023-04-29T15:08:13.218Z,93830.00
2023-04-29T15:12:18.190Z,93836.00
2023-04-29T15:16:22.120Z,93846.00
2023-04-29T15:20:33.359Z,93843.00
2023-04-29T15:24:38.443Z,93852.00
2023-04-29T15:28:46.105Z,93858.00
2023-04-29T15:32:50.144Z,93854.00
2023-04-29T15:36:56.262Z,93870.00
2023-04-29T15:41:03.664Z,93880.00
2023-04-29T15:45:08.897Z,93879.00
2023-04-29T15:49:14.622Z,93869.00
2023-04-29T15:53:20.830Z,93877.00
2023-04-29T15:57:26.989Z,93891.00
2023-04-29T16:01:31.066Z,93893.00
2023-04-29T16:05:35.195Z,93905.00
2023-04-29T16:09:40.388Z,93904.00
2023-04-29T16:13:53.919Z,93911.00
2023-04-29T16:18:00.367Z,93916.00
2023-04-29T16:22:04.588Z,93922.00
2023-04-29T16:26:08.127Z,93920.00
2023-04-29T16:30:13.612Z,93922.00
2023-04-29T16:34:17.188Z,93924.00
2023-04-29T16:38:21.826Z,93928.00
2023-04-29T16:42:25.315Z,93931.00
2023-04-29T16:46:32.679Z,93934.00
2023-04-29T16:50:37.829Z,93940.00
2023-04-29T16:54:42.744Z,93941.00
2023-04-29T16:58:46.070Z,93951.00
2023-04-29T17:02:51.917Z,93952.00
2023-04-29T17:06:55.316Z,93952.00
2023-04-29T17:11:00.027Z,93961.00
2023-04-29T17:15:04.157Z,93970.00
2023-04-29T17:19:09.540Z,93974.00
2023-04-29T17:23:12.942Z,93964.00
2023-04-29T17:27:16.661Z,93968.00
2023-04-29T17:31:21.069Z,93979.00
2023-04-29T17:35:26.197Z,93976.00
2023-04-29T17:39:29.804Z,93987.00
2023-04-29T17:43:35.786Z,93989.00
2023-04-29T17:47:39.244Z,93997.00
2023-04-29T17:51:44.333Z,94007.00
2023-04-29T17:55:47.903Z,94007.00
2023-04-29T17:59:51.682Z,94016.00
2023-04-29T18:03:55.428Z,94015.00
2023-04-29T18:08:00.682Z,94021.00
2023-04-29T18:12:04.473Z,94025.00
2023-04-29T18:16:08.361Z,94032.00
2023-04-29T18:20:13.031Z,94038.00
2023-04-29T18:24:17.982Z,94040.00
2023-04-29T18:28:25.221Z,94040.00
2023-04-29T18:32:29.141Z,94054.00
2023-04-29T18:36:33.398Z,94038.00
2023-04-29T18:40:38.386Z,94050.00
2023-04-29T18:44:41.926Z,94056.00
2023-04-29T18:48:45.450Z,94053.00
2023-04-29T18:52:50.110Z,94066.00
2023-04-29T18:56:55.083Z,94071.00
2023-04-29T19:01:00.350Z,94067.00
2023-04-29T19:05:06.830Z,94071.00
2023-04-29T19:09:13.770Z,94067.00
2023-04-29T19:13:21.301Z,94079.00
2023-04-29T19:17:24.848Z,94077.00
2023-04-29T19:21:29.122Z,94073.00
2023-04-29T19:25:32.433Z,94078.00
2023-04-29T19:29:38.169Z,94089.00
2023-04-29T19:33:41.493Z,94088.00
2023-04-29T19:37:45.069Z,94097.00
2023-04-29T19:41:48.516Z,94101.00
2023-04-29T19:45:54.728Z,94109.00
2023-04-29T19:49:58.431Z,94114.00
2023-04-29T19:54:02.180Z,94117.00
2023-04-29T19:58:05.537Z,94117.00
2023-04-29T20:02:13.551Z,94126.00
2023-04-29T20:06:17.688Z,94123.00
2023-04-29T20:10:21.433Z,94127.00
2023-04-29T20:14:24.991Z,94127.00
2023-04-29T20:18:30.026Z,94133.00
2023-04-29T20:22:33.516Z,94130.00
2023-04-29T20:26:36.930Z,94133.00
2023-04-29T20:30:40.590Z,94140.00
2023-04-29T20:34:45.941Z,94136.00
2023-04-29T20:38:50.808Z,94139.00
2023-04-29T20:42:54.286Z,94139.00
2023-04-29T20:46:58.744Z,94146.00
2023-04-29T20:51:03.557Z,94158.00
2023-04-29T20:55:07.605Z,94159.00
2023-04-29T20:59:11.019Z,94161.00
2023-04-29T21:03:16.029Z,94162.00
2023-04-29T21:07:20.940Z,94176.00
2023-04-29T21:11:24.568Z,94172.00
2023-04-29T21:15:29.553Z,94179.00
2023-04-29T21:19:32.999Z,94172.00
2023-04-29T21:23:37.898Z,94173.00
2023-04-29T21:27:41.575Z,94186.00
2023-04-29T21:31:45.016Z,94192.00
2023-04-29T21:35:51.465Z,94192.00
2023-04-29T21:39:57.798Z,94194.00
2023-04-29T21:44:02.843Z,94193.00
2023-04-29T21:48:16.399Z,94198.00
2023-04-29T21:52:19.980Z,94205.00
2023-04-29T21:56:25.142Z,94197.00
2023-04-29T22:00:33.411Z,94189.00
2023-04-29T22:04:37.159Z,94190.00
2023-04-29T22:08:40.892Z,94184.00
2023-04-29T22:12:45.994Z,94206.00
2023-04-29T22:16:49.399Z,94201.00
2023-04-29T22:20:53.367Z,94207.00
2023-04-29T22:24:56.641Z,94203.00
2023-04-29T22:29:01.602Z,94206.00
2023-04-29T22:33:05.209Z,94209.00
2023-04-29T22:37:08.886Z,94214.00
2023-04-29T22:41:12.326Z,94221.00
2023-04-29T22:45:17.462Z,94216.00
2023-04-29T22:49:21.136Z,94220.00
2023-04-29T22:53:25.459Z,94221.00
2023-04-29T22:57:29.033Z,94226.00
2023-04-29T23:01:34.261Z,94232.00
2023-04-29T23:05:37.657Z,94233.00
2023-04-29T23:09:42.037Z,94231.00
2023-04-29T23:13:45.796Z,94251.00
2023-04-29T23:17:51.236Z,94230.00
2023-04-29T23:21:55.888Z,94241.00
2023-04-29T23:25:59.357Z,94252.00
2023-04-29T23:30:02.898Z,94247.00
2023-04-29T23:34:08.006Z,94242.00
2023-04-29T23:38:11.619Z,94242.00
2023-04-29T23:42:15.159Z,94252.00
2023-04-29T23:46:18.720Z,94248.00
2023-04-29T23:50:23.699Z,94243.00
2023-04-29T23:54:28.196Z,94247.00
2023-04-29T23:58:31.616Z,94260.00
